NKHO2: Little Washita River Nr Ninnek

Data processed at Tue May 21 2019 23:50


All information presented herein is the property of the government of the United States of America and may be revised or deleted at any time without prior notice.
Dissemination of this information without the expressed written consent of the Public Affairs Office, Tulsa District U.S. Army Corps of Engineers is strictly prohibited.
These data are gathered electronically and, as presented, have not undergone any form of quality control. These data are not guaranteed to be valid or correct.
Go to home page.
Go to station list.
Go to home page.

Upstream stations:

Downstream station:
Previous Day
Next Day
Current Day
    
SHEF ID:       NKHO2     Little Washita River East of Nin
STATION TYPE:  
Regulating: Stage =    15.00, Flow =     2623

                STAGE  STAGE(2)  RIV-FLOW  BAT-LOAD
                   ft        ft       cfs      volt
              Ccp-Rev   Ccp-Rev   Ccp-Rev   Ccp-Rev
(US/Central)
05/21 00:00      7.85      ----       139     12.89
05/21 01:00      8.02      ----       168      ----
05/21 02:00      8.52      ----       266     12.81
05/21 03:00      8.97      ----       380      ----
05/21 04:00      9.51      ----       521     12.81
05/21 05:00     10.44      ----       823      ----
05/21 06:00     11.54      ----      1227     12.73
05/21 07:00     12.10      ----      1451      ----
05/21 08:00     12.52      ----      1626     12.73
05/21 09:00     12.68      ----      1695     12.81
05/21 10:00     12.69      ----      1699     12.97
05/21 11:00     12.57      ----      1647     13.29
05/21 12:00     12.31      ----      1537     13.68
05/21 13:00     12.17      ----      1479     13.60
05/21 14:00     12.16      ----      1475      ----
05/21 15:00     12.29      ----      1529     13.37
05/21 16:00     12.37      ----      1562     13.29
05/21 17:00     12.35      ----      1554     13.29
05/21 18:00     12.19      ----      1488     13.21
05/21 19:00     11.99      ----      1406     13.21
05/21 20:00     11.74      ----      1307     13.13
05/21 21:00     11.50      ----      1211     12.97
05/21 22:00     11.29      ----      1129     12.89
05/21 23:00     11.10      ----      1056     12.89